This is the latest recevied weather packets stored in our database for station/object KG7QQL. If no packets are shown the sender has not sent any weather packets the latest 10 day(s).
| Time | Temp. | Humidity | Pressure | Rain* | Wind** | Luminosity | Snow |
|---|---|---|---|---|---|---|---|
| 1777699729 | 12.78° C | 86% | - | 0 mm | - | - | - |
| 1777699427 | 12.78° C | 85% | - | 0 mm | - | - | - |
| 1777699125 | 13.33° C | 82% | - | 0 mm | - | - | - |
| 1777698824 | 14.44° C | 76% | - | 0 mm | - | - | - |
| 1777698520 | 14.44° C | 74% | - | 0 mm | - | - | - |
| 1777698216 | 14.44° C | 75% | - | 0 mm | - | - | - |
| 1777697913 | 13.89° C | 76% | - | 0 mm | - | - | - |
| 1777697610 | 13.89° C | 80% | - | 0 mm | - | - | - |
| 1777697307 | 13.89° C | 80% | - | 0 mm | - | - | - |
| 1777697003 | 13.89° C | 80% | - | 0 mm | - | - | - |
| 1777696700 | 13.89° C | 79% | - | 0 mm | - | - | - |
| 1777696398 | 13.89° C | 77% | - | 0 mm | - | - | - |
| 1777696097 | 14.44° C | 75% | - | 0 mm | - | - | - |
| 1777695795 | 15° C | 73% | - | 0 mm | - | - | - |
| 1777695492 | 15.56° C | 69% | - | 0 mm | - | - | - |
| 1777695189 | 15.56° C | 67% | - | 0 mm | - | - | - |
| 1777694887 | 15.56° C | 69% | - | 0 mm | - | - | - |
| 1777694583 | 15.56° C | 69% | - | 0 mm | - | - | - |
| 1777694279 | 16.67° C | 65% | - | 0 mm | - | - | - |
| 1777693976 | 16.67° C | 65% | - | 0 mm | - | - | - |
| 1777693673 | 16.11° C | 66% | - | 0 mm | - | - | - |
| 1777693372 | 16.67° C | 65% | - | 0 mm | - | - | - |
| 1777693070 | 16.67° C | 65% | - | 0 mm | - | - | - |
| 1777692767 | 16.67° C | 64% | - | 0 mm | - | - | - |
| 1777692463 | 16.67° C | 63% | - | 0 mm | - | - | - |
* Rain latest hour (hover to see other rain measurements)
** Current wind speed in m/s (hover to see current wind gust speed)